AUA108 LOWI-LOWW
Flight info
| Callsign | AUA108 |
|---|---|
| Flight time | 1h 1m |
| Altitude | 27000 |
| Route | RTT DCT NEMAL NEMAL2W |
| Aircraft | A320/M-SDE3FGHIRWY/LB1 |
Departure
| Time | 2026-05-06 19:25 |
|---|---|
| Airport | Innsbruck Airport (LOWI) |
Arrival
| Time | 2026-05-06 20:27 |
|---|---|
| Airport | Vienna International Airport (LOWW) |
| Time | Latitude | Longitude | Altitude | Speed | Heading |
|---|---|---|---|---|---|
| 2026-05-06 19:02 | 47.25802 | 11.34871 | 1914 ft | 0 kts | 170° |
| 2026-05-06 19:14 | 47.25817 | 11.34867 | 1902 ft | 2 kts | 173° |
| 2026-05-06 19:15 | 47.25828 | 11.34865 | 1904 ft | 2 kts | 169° |
| 2026-05-06 19:15 | 47.25842 | 11.34863 | 1902 ft | 1 kts | 177° |
| 2026-05-06 19:15 | 47.25844 | 11.34863 | 1902 ft | 1 kts | 178° |
| 2026-05-06 19:15 | 47.25851 | 11.34863 | 1908 ft | 1 kts | 219° |
| 2026-05-06 19:16 | 47.25860 | 11.34876 | 1909 ft | 0 kts | 246° |
| 2026-05-06 19:17 | 47.25857 | 11.34866 | 1910 ft | 6 kts | 248° |
| 2026-05-06 19:18 | 47.25842 | 11.34765 | 1914 ft | 10 kts | 261° |
| 2026-05-06 19:18 | 47.25833 | 11.34660 | 1911 ft | 15 kts | 263° |
| 2026-05-06 19:18 | 47.25809 | 11.34433 | 1914 ft | 24 kts | 260° |
| 2026-05-06 19:18 | 47.25781 | 11.34180 | 1914 ft | 25 kts | 262° |
| 2026-05-06 19:19 | 47.25774 | 11.33992 | 1914 ft | 11 kts | 279° |
| 2026-05-06 19:19 | 47.25776 | 11.33979 | 1914 ft | 0 kts | 281° |
| 2026-05-06 19:19 | 47.25778 | 11.33963 | 1909 ft | 8 kts | 285° |
| 2026-05-06 19:19 | 47.25813 | 11.33868 | 1903 ft | 0 kts | 304° |
| 2026-05-06 19:22 | 47.25814 | 11.33865 | 1914 ft | 1 kts | 304° |
| 2026-05-06 19:23 | 47.25821 | 11.33850 | 1902 ft | 1 kts | 303° |
| 2026-05-06 19:23 | 47.25834 | 11.33821 | 1900 ft | 11 kts | 303° |
| 2026-05-06 19:23 | 47.25892 | 11.33712 | 1904 ft | 13 kts | 307° |
| 2026-05-06 19:23 | 47.25924 | 11.33596 | 1898 ft | 13 kts | 283° |
| 2026-05-06 19:24 | 47.25911 | 11.33390 | 1913 ft | 25 kts | 259° |
| 2026-05-06 19:24 | 47.25866 | 11.33214 | 1913 ft | 14 kts | 216° |
| 2026-05-06 19:24 | 47.25839 | 11.33092 | 1900 ft | 12 kts | 300° |
| 2026-05-06 19:24 | 47.25886 | 11.33127 | 1913 ft | 12 kts | 81° |
| 2026-05-06 19:25 | 47.25915 | 11.33459 | 1901 ft | 67 kts | 81° |
| 2026-05-06 19:25 | 47.26028 | 11.34471 | 1914 ft | 130 kts | 84° |
| 2026-05-06 19:25 | 47.26146 | 11.35987 | 2204 ft | 159 kts | 78° |
| 2026-05-06 19:25 | 47.26440 | 11.37556 | 2938 ft | 158 kts | 78° |
| 2026-05-06 19:26 | 47.26660 | 11.39158 | 3488 ft | 163 kts | 79° |
| 2026-05-06 19:26 | 47.26879 | 11.40875 | 3704 ft | 183 kts | 79° |
| 2026-05-06 19:26 | 47.27119 | 11.42804 | 4122 ft | 192 kts | 80° |
| 2026-05-06 19:26 | 47.27379 | 11.44723 | 4634 ft | 194 kts | 78° |
| 2026-05-06 19:27 | 47.27724 | 11.46649 | 5212 ft | 195 kts | 77° |
| 2026-05-06 19:27 | 47.28091 | 11.48579 | 5810 ft | 197 kts | 76° |
| 2026-05-06 19:27 | 47.28467 | 11.50539 | 6352 ft | 201 kts | 76° |
| 2026-05-06 19:27 | 47.28847 | 11.52535 | 6876 ft | 204 kts | 77° |
| 2026-05-06 19:28 | 47.29231 | 11.54567 | 7385 ft | 208 kts | 77° |
| 2026-05-06 19:28 | 47.29618 | 11.56626 | 7930 ft | 209 kts | 77° |
| 2026-05-06 19:28 | 47.30010 | 11.58709 | 8463 ft | 212 kts | 77° |
| 2026-05-06 19:28 | 47.30406 | 11.60816 | 8999 ft | 214 kts | 78° |
| 2026-05-06 19:29 | 47.30807 | 11.62941 | 9526 ft | 217 kts | 78° |
| 2026-05-06 19:29 | 47.31317 | 11.65055 | 10004 ft | 223 kts | 63° |
| 2026-05-06 19:29 | 47.32192 | 11.67043 | 10205 ft | 243 kts | 64° |
| 2026-05-06 19:29 | 47.32757 | 11.69478 | 10392 ft | 259 kts | 78° |
| 2026-05-06 19:30 | 47.33219 | 11.72139 | 10648 ft | 277 kts | 78° |
| 2026-05-06 19:30 | 47.33536 | 11.73985 | 10941 ft | 282 kts | 78° |
| 2026-05-06 19:30 | 47.34021 | 11.76816 | 11556 ft | 287 kts | 79° |
| 2026-05-06 19:30 | 47.34513 | 11.79696 | 12122 ft | 294 kts | 79° |
| 2026-05-06 19:31 | 47.35029 | 11.82724 | 12369 ft | 316 kts | 79° |
| 2026-05-06 19:31 | 47.35581 | 11.85974 | 12561 ft | 339 kts | 78° |
| 2026-05-06 19:31 | 47.36807 | 11.93126 | 13231 ft | 372 kts | 78° |
| 2026-05-06 19:32 | 47.37449 | 11.96859 | 13854 ft | 378 kts | 78° |
| 2026-05-06 19:32 | 47.38099 | 12.00644 | 14482 ft | 382 kts | 78° |
| 2026-05-06 19:32 | 47.38752 | 12.04461 | 15097 ft | 386 kts | 78° |
| 2026-05-06 19:32 | 47.39409 | 12.08322 | 15714 ft | 389 kts | 79° |
| 2026-05-06 19:33 | 47.40072 | 12.12221 | 16274 ft | 394 kts | 79° |
| 2026-05-06 19:33 | 47.40739 | 12.16165 | 16903 ft | 397 kts | 79° |
| 2026-05-06 19:33 | 47.41407 | 12.20123 | 17505 ft | 399 kts | 79° |
| 2026-05-06 19:33 | 47.42067 | 12.24044 | 18108 ft | 403 kts | 79° |
| 2026-05-06 19:34 | 47.42740 | 12.28070 | 18606 ft | 406 kts | 79° |
| 2026-05-06 19:34 | 47.43418 | 12.32141 | 19095 ft | 410 kts | 79° |
| 2026-05-06 19:34 | 47.44100 | 12.36244 | 19596 ft | 414 kts | 79° |
| 2026-05-06 19:34 | 47.44789 | 12.40384 | 20111 ft | 417 kts | 79° |
| 2026-05-06 19:35 | 47.45486 | 12.44586 | 20644 ft | 422 kts | 79° |
| 2026-05-06 19:35 | 47.46184 | 12.48805 | 21159 ft | 425 kts | 80° |
| 2026-05-06 19:35 | 47.46891 | 12.53083 | 21650 ft | 430 kts | 80° |
| 2026-05-06 19:35 | 47.47591 | 12.57323 | 22146 ft | 433 kts | 80° |
| 2026-05-06 19:36 | 47.48308 | 12.61674 | 22634 ft | 437 kts | 80° |
| 2026-05-06 19:36 | 47.49027 | 12.66062 | 23125 ft | 441 kts | 80° |
| 2026-05-06 19:36 | 47.49749 | 12.70489 | 23556 ft | 444 kts | 80° |
| 2026-05-06 19:36 | 47.50478 | 12.74952 | 23921 ft | 447 kts | 80° |
| 2026-05-06 19:37 | 47.51210 | 12.79434 | 24277 ft | 451 kts | 80° |
| 2026-05-06 19:37 | 47.51948 | 12.83957 | 24643 ft | 454 kts | 80° |
| 2026-05-06 19:37 | 47.52687 | 12.88518 | 24997 ft | 456 kts | 80° |
| 2026-05-06 19:37 | 47.53424 | 12.93096 | 25318 ft | 460 kts | 80° |
| 2026-05-06 19:38 | 47.54163 | 12.97716 | 25582 ft | 463 kts | 81° |
| 2026-05-06 19:38 | 47.54907 | 13.02375 | 25935 ft | 466 kts | 81° |
| 2026-05-06 19:38 | 47.55657 | 13.07071 | 26272 ft | 469 kts | 80° |
| 2026-05-06 19:38 | 47.56397 | 13.11702 | 26498 ft | 468 kts | 81° |
| 2026-05-06 19:39 | 47.57148 | 13.16417 | 26720 ft | 471 kts | 80° |
| 2026-05-06 19:39 | 47.57899 | 13.21146 | 26854 ft | 472 kts | 81° |
| 2026-05-06 19:39 | 47.58655 | 13.25899 | 26879 ft | 464 kts | 80° |
| 2026-05-06 19:39 | 47.59393 | 13.30540 | 26870 ft | 462 kts | 81° |
| 2026-05-06 19:40 | 47.60123 | 13.35162 | 26865 ft | 461 kts | 81° |
| 2026-05-06 19:40 | 47.60851 | 13.39788 | 26861 ft | 461 kts | 81° |
| 2026-05-06 19:40 | 47.61575 | 13.44421 | 26854 ft | 461 kts | 81° |
| 2026-05-06 19:40 | 47.62294 | 13.49045 | 26851 ft | 460 kts | 81° |
| 2026-05-06 19:41 | 47.63011 | 13.53671 | 26847 ft | 460 kts | 81° |
| 2026-05-06 19:41 | 47.63726 | 13.58290 | 26850 ft | 460 kts | 81° |
| 2026-05-06 19:41 | 47.64440 | 13.62916 | 26842 ft | 460 kts | 81° |
| 2026-05-06 19:41 | 47.65154 | 13.67547 | 26838 ft | 460 kts | 81° |
| 2026-05-06 19:42 | 47.65863 | 13.72168 | 26831 ft | 460 kts | 81° |
| 2026-05-06 19:42 | 47.66573 | 13.76804 | 26823 ft | 460 kts | 81° |
| 2026-05-06 19:42 | 47.67279 | 13.81424 | 26822 ft | 460 kts | 81° |
| 2026-05-06 19:42 | 47.67983 | 13.86022 | 26816 ft | 459 kts | 81° |
| 2026-05-06 19:43 | 47.68689 | 13.90639 | 26810 ft | 459 kts | 81° |
| 2026-05-06 19:43 | 47.69393 | 13.95262 | 26808 ft | 459 kts | 81° |
| 2026-05-06 19:43 | 47.70094 | 13.99889 | 26806 ft | 459 kts | 81° |
| 2026-05-06 19:43 | 47.70790 | 14.04511 | 26803 ft | 458 kts | 81° |
| 2026-05-06 19:44 | 47.71482 | 14.09137 | 26795 ft | 458 kts | 81° |
| 2026-05-06 19:44 | 47.72172 | 14.13748 | 26795 ft | 458 kts | 81° |
| 2026-05-06 19:44 | 47.72863 | 14.18370 | 26790 ft | 458 kts | 81° |
| 2026-05-06 19:44 | 47.73551 | 14.22982 | 26790 ft | 458 kts | 81° |
| 2026-05-06 19:45 | 47.74235 | 14.27612 | 26787 ft | 458 kts | 81° |
| 2026-05-06 19:45 | 47.74907 | 14.32171 | 26781 ft | 457 kts | 81° |
| 2026-05-06 19:45 | 47.75584 | 14.36772 | 26649 ft | 455 kts | 81° |
| 2026-05-06 19:45 | 47.76258 | 14.41336 | 26384 ft | 451 kts | 81° |
| 2026-05-06 19:46 | 47.76926 | 14.45880 | 26130 ft | 447 kts | 81° |
| 2026-05-06 19:46 | 47.77587 | 14.50383 | 25877 ft | 445 kts | 81° |
| 2026-05-06 19:46 | 47.78241 | 14.54865 | 25626 ft | 442 kts | 81° |
| 2026-05-06 19:46 | 47.78892 | 14.59337 | 25374 ft | 440 kts | 81° |
| 2026-05-06 19:47 | 47.79544 | 14.63827 | 25129 ft | 438 kts | 81° |
| 2026-05-06 19:47 | 47.80178 | 14.68191 | 24885 ft | 436 kts | 81° |
| 2026-05-06 19:47 | 47.80813 | 14.72582 | 24522 ft | 431 kts | 81° |
| 2026-05-06 19:47 | 47.81437 | 14.76922 | 23996 ft | 428 kts | 81° |
| 2026-05-06 19:48 | 47.82069 | 14.81343 | 23470 ft | 444 kts | 81° |
| 2026-05-06 19:48 | 47.82713 | 14.85860 | 22889 ft | 444 kts | 81° |
| 2026-05-06 19:48 | 47.83351 | 14.90346 | 22375 ft | 442 kts | 81° |
| 2026-05-06 19:48 | 47.83982 | 14.94801 | 21867 ft | 438 kts | 81° |
| 2026-05-06 19:49 | 47.84607 | 14.99223 | 21337 ft | 435 kts | 81° |
| 2026-05-06 19:49 | 47.85227 | 15.03606 | 20824 ft | 432 kts | 81° |
| 2026-05-06 19:49 | 47.85845 | 15.07972 | 20288 ft | 429 kts | 81° |
| 2026-05-06 19:49 | 47.86457 | 15.12297 | 19760 ft | 426 kts | 81° |
| 2026-05-06 19:50 | 47.87064 | 15.16611 | 19214 ft | 425 kts | 81° |
| 2026-05-06 19:50 | 47.87664 | 15.20912 | 18662 ft | 423 kts | 81° |
| 2026-05-06 19:50 | 47.88257 | 15.25203 | 18139 ft | 422 kts | 81° |
| 2026-05-06 19:50 | 47.88842 | 15.29443 | 17818 ft | 414 kts | 81° |
| 2026-05-06 19:51 | 47.89414 | 15.33618 | 17382 ft | 408 kts | 83° |
| 2026-05-06 19:51 | 47.89651 | 15.37790 | 16909 ft | 400 kts | 94° |
| 2026-05-06 19:51 | 47.89569 | 15.41912 | 16468 ft | 395 kts | 95° |
| 2026-05-06 19:51 | 47.89486 | 15.45939 | 16338 ft | 383 kts | 95° |
| 2026-05-06 19:52 | 47.89163 | 15.49802 | 16177 ft | 370 kts | 107° |
| 2026-05-06 19:52 | 47.88546 | 15.53505 | 16032 ft | 367 kts | 108° |
| 2026-05-06 19:52 | 47.87938 | 15.57150 | 15843 ft | 359 kts | 108° |
| 2026-05-06 19:52 | 47.87338 | 15.60752 | 15626 ft | 357 kts | 108° |
| 2026-05-06 19:53 | 47.86741 | 15.64332 | 15373 ft | 356 kts | 108° |
| 2026-05-06 19:53 | 47.86144 | 15.67894 | 15117 ft | 355 kts | 108° |
| 2026-05-06 19:53 | 47.85545 | 15.71446 | 14877 ft | 353 kts | 108° |
| 2026-05-06 19:53 | 47.84948 | 15.74989 | 14634 ft | 352 kts | 108° |
| 2026-05-06 19:54 | 47.84369 | 15.78433 | 14399 ft | 350 kts | 108° |
| 2026-05-06 19:54 | 47.83768 | 15.82006 | 14151 ft | 344 kts | 108° |
| 2026-05-06 19:54 | 47.83194 | 15.85411 | 13917 ft | 337 kts | 107° |
| 2026-05-06 19:54 | 47.82627 | 15.88763 | 13675 ft | 330 kts | 108° |
| 2026-05-06 19:55 | 47.82076 | 15.92002 | 13421 ft | 325 kts | 108° |
| 2026-05-06 19:55 | 47.81515 | 15.95290 | 13154 ft | 321 kts | 108° |
| 2026-05-06 19:55 | 47.80971 | 15.98463 | 12896 ft | 319 kts | 108° |
| 2026-05-06 19:55 | 47.80425 | 16.01647 | 12630 ft | 317 kts | 108° |
| 2026-05-06 19:56 | 47.79881 | 16.04819 | 12372 ft | 316 kts | 108° |
| 2026-05-06 19:56 | 47.79339 | 16.07983 | 12120 ft | 315 kts | 108° |
| 2026-05-06 19:56 | 47.78795 | 16.11132 | 11859 ft | 314 kts | 108° |
| 2026-05-06 19:56 | 47.78253 | 16.14270 | 11603 ft | 313 kts | 108° |
| 2026-05-06 19:57 | 47.77716 | 16.17393 | 11354 ft | 312 kts | 107° |
| 2026-05-06 19:57 | 47.77407 | 16.20590 | 11101 ft | 314 kts | 94° |
| 2026-05-06 19:57 | 47.77562 | 16.23836 | 10856 ft | 317 kts | 81° |
| 2026-05-06 19:57 | 47.78185 | 16.26989 | 10594 ft | 318 kts | 68° |
| 2026-05-06 19:58 | 47.79217 | 16.29890 | 10375 ft | 318 kts | 60° |
| 2026-05-06 19:58 | 47.80323 | 16.32693 | 10131 ft | 316 kts | 60° |
| 2026-05-06 19:58 | 47.81428 | 16.35514 | 9995 ft | 316 kts | 60° |
| 2026-05-06 19:58 | 47.82534 | 16.38348 | 10009 ft | 315 kts | 61° |
| 2026-05-06 19:59 | 47.83634 | 16.41170 | 10001 ft | 316 kts | 60° |
| 2026-05-06 19:59 | 47.84734 | 16.43999 | 10000 ft | 316 kts | 60° |
| 2026-05-06 19:59 | 47.85838 | 16.46833 | 10002 ft | 316 kts | 61° |
| 2026-05-06 19:59 | 47.86930 | 16.49630 | 10001 ft | 316 kts | 61° |
| 2026-05-06 20:00 | 47.88033 | 16.52459 | 10000 ft | 316 kts | 61° |
| 2026-05-06 20:00 | 47.89134 | 16.55293 | 10013 ft | 317 kts | 61° |
| 2026-05-06 20:00 | 47.90236 | 16.58135 | 10005 ft | 316 kts | 61° |
| 2026-05-06 20:00 | 47.91339 | 16.60983 | 10006 ft | 317 kts | 61° |
| 2026-05-06 20:01 | 47.92446 | 16.63842 | 10018 ft | 318 kts | 61° |
| 2026-05-06 20:01 | 47.93549 | 16.66690 | 10005 ft | 318 kts | 61° |
| 2026-05-06 20:01 | 47.94654 | 16.69550 | 10015 ft | 318 kts | 61° |
| 2026-05-06 20:01 | 47.95756 | 16.72408 | 10006 ft | 318 kts | 61° |
| 2026-05-06 20:02 | 47.96857 | 16.75263 | 10007 ft | 318 kts | 61° |
| 2026-05-06 20:02 | 47.98150 | 16.77946 | 10009 ft | 319 kts | 44° |
| 2026-05-06 20:02 | 47.99962 | 16.79803 | 10000 ft | 317 kts | 21° |
| 2026-05-06 20:02 | 48.02080 | 16.80564 | 10009 ft | 312 kts | 359° |
| 2026-05-06 20:03 | 48.04176 | 16.80199 | 10012 ft | 304 kts | 338° |
| 2026-05-06 20:03 | 48.06083 | 16.78921 | 10006 ft | 300 kts | 328° |
| 2026-05-06 20:03 | 48.07933 | 16.77493 | 10004 ft | 298 kts | 328° |
| 2026-05-06 20:03 | 48.09735 | 16.76124 | 10000 ft | 284 kts | 332° |
| 2026-05-06 20:04 | 48.11663 | 16.75499 | 10003 ft | 289 kts | 359° |
| 2026-05-06 20:04 | 48.13610 | 16.76223 | 10007 ft | 289 kts | 27° |
| 2026-05-06 20:04 | 48.15278 | 16.77803 | 9915 ft | 279 kts | 34° |
| 2026-05-06 20:04 | 48.16830 | 16.79467 | 9796 ft | 269 kts | 35° |
| 2026-05-06 20:05 | 48.18382 | 16.80918 | 9640 ft | 258 kts | 19° |
| 2026-05-06 20:05 | 48.20103 | 16.81431 | 9325 ft | 249 kts | 354° |
| 2026-05-06 20:05 | 48.21768 | 16.80918 | 8864 ft | 244 kts | 329° |
| 2026-05-06 20:05 | 48.23144 | 16.79488 | 8362 ft | 240 kts | 306° |
| 2026-05-06 20:06 | 48.24034 | 16.77438 | 7973 ft | 231 kts | 285° |
| 2026-05-06 20:06 | 48.24363 | 16.75133 | 7631 ft | 224 kts | 266° |
| 2026-05-06 20:06 | 48.24129 | 16.72875 | 7349 ft | 215 kts | 247° |
| 2026-05-06 20:06 | 48.23637 | 16.70737 | 7235 ft | 220 kts | 254° |
| 2026-05-06 20:07 | 48.23476 | 16.68451 | 7117 ft | 223 kts | 269° |
| 2026-05-06 20:07 | 48.23718 | 16.66134 | 7021 ft | 227 kts | 283° |
| 2026-05-06 20:07 | 48.24367 | 16.63962 | 7001 ft | 231 kts | 298° |
| 2026-05-06 20:07 | 48.25393 | 16.62078 | 7004 ft | 237 kts | 313° |
| 2026-05-06 20:08 | 48.26750 | 16.60642 | 7001 ft | 242 kts | 329° |
| 2026-05-06 20:08 | 48.28333 | 16.59820 | 7002 ft | 247 kts | 346° |
| 2026-05-06 20:08 | 48.30059 | 16.59703 | 7003 ft | 252 kts | 4° |
| 2026-05-06 20:08 | 48.31766 | 16.60327 | 7002 ft | 254 kts | 17° |
| 2026-05-06 20:09 | 48.33474 | 16.60951 | 6998 ft | 252 kts | 2° |
| 2026-05-06 20:09 | 48.35208 | 16.60901 | 6993 ft | 248 kts | 347° |
| 2026-05-06 20:09 | 48.36875 | 16.60294 | 6856 ft | 246 kts | 345° |
| 2026-05-06 20:09 | 48.38569 | 16.60368 | 6595 ft | 247 kts | 15° |
| 2026-05-06 20:10 | 48.40157 | 16.61377 | 6252 ft | 249 kts | 24° |
| 2026-05-06 20:10 | 48.41687 | 16.62552 | 6002 ft | 245 kts | 25° |
| 2026-05-06 20:10 | 48.43212 | 16.63756 | 5985 ft | 249 kts | 25° |
| 2026-05-06 20:10 | 48.44750 | 16.64969 | 5991 ft | 250 kts | 26° |
| 2026-05-06 20:11 | 48.46289 | 16.66185 | 5982 ft | 250 kts | 26° |
| 2026-05-06 20:11 | 48.47870 | 16.67249 | 5985 ft | 248 kts | 12° |
| 2026-05-06 20:11 | 48.49556 | 16.67773 | 5987 ft | 248 kts | 6° |
| 2026-05-06 20:11 | 48.51255 | 16.68177 | 5986 ft | 247 kts | 6° |
| 2026-05-06 20:12 | 48.52949 | 16.68560 | 5984 ft | 246 kts | 5° |
| 2026-05-06 20:12 | 48.54648 | 16.68947 | 5979 ft | 247 kts | 6° |
| 2026-05-06 20:12 | 48.55770 | 16.69200 | 5980 ft | 242 kts | 6° |
| 2026-05-06 20:12 | 48.57382 | 16.69477 | 5962 ft | 224 kts | 353° |
| 2026-05-06 20:13 | 48.58851 | 16.69016 | 5824 ft | 212 kts | 338° |
| 2026-05-06 20:13 | 48.60239 | 16.68325 | 5596 ft | 208 kts | 336° |
| 2026-05-06 20:13 | 48.61593 | 16.67613 | 5342 ft | 204 kts | 336° |
| 2026-05-06 20:13 | 48.62926 | 16.66896 | 5027 ft | 202 kts | 335° |
| 2026-05-06 20:14 | 48.64247 | 16.66193 | 4979 ft | 202 kts | 334° |
| 2026-05-06 20:14 | 48.65378 | 16.65046 | 4974 ft | 193 kts | 301° |
| 2026-05-06 20:14 | 48.65764 | 16.63214 | 4977 ft | 182 kts | 262° |
| 2026-05-06 20:14 | 48.65268 | 16.61529 | 4981 ft | 178 kts | 224° |
| 2026-05-06 20:15 | 48.64265 | 16.60437 | 4981 ft | 179 kts | 212° |
| 2026-05-06 20:15 | 48.63179 | 16.59492 | 4985 ft | 181 kts | 211° |
| 2026-05-06 20:15 | 48.62082 | 16.58573 | 4986 ft | 180 kts | 211° |
| 2026-05-06 20:15 | 48.60983 | 16.57668 | 4985 ft | 180 kts | 211° |
| 2026-05-06 20:16 | 48.59876 | 16.56757 | 4986 ft | 182 kts | 211° |
| 2026-05-06 20:16 | 48.58767 | 16.55849 | 4980 ft | 181 kts | 210° |
| 2026-05-06 20:16 | 48.57665 | 16.54946 | 4979 ft | 180 kts | 211° |
| 2026-05-06 20:16 | 48.56559 | 16.54051 | 4981 ft | 181 kts | 211° |
| 2026-05-06 20:17 | 48.55442 | 16.53162 | 4982 ft | 182 kts | 210° |
| 2026-05-06 20:17 | 48.54340 | 16.52285 | 4980 ft | 181 kts | 210° |
| 2026-05-06 20:17 | 48.53225 | 16.51393 | 4980 ft | 181 kts | 211° |
| 2026-05-06 20:17 | 48.52110 | 16.50508 | 4983 ft | 182 kts | 211° |
| 2026-05-06 20:18 | 48.50926 | 16.49566 | 4983 ft | 199 kts | 210° |
| 2026-05-06 20:18 | 48.49685 | 16.48570 | 4987 ft | 203 kts | 211° |
| 2026-05-06 20:18 | 48.48437 | 16.47570 | 4982 ft | 204 kts | 210° |
| 2026-05-06 20:18 | 48.47179 | 16.46562 | 4984 ft | 205 kts | 211° |
| 2026-05-06 20:19 | 48.45866 | 16.45710 | 4984 ft | 208 kts | 193° |
| 2026-05-06 20:19 | 48.44406 | 16.45642 | 4983 ft | 211 kts | 182° |
| 2026-05-06 20:19 | 48.42952 | 16.45759 | 4985 ft | 204 kts | 180° |
| 2026-05-06 20:19 | 48.41558 | 16.45890 | 4989 ft | 200 kts | 181° |
| 2026-05-06 20:20 | 48.40192 | 16.46031 | 4987 ft | 194 kts | 176° |
| 2026-05-06 20:20 | 48.38862 | 16.46427 | 4987 ft | 194 kts | 171° |
| 2026-05-06 20:20 | 48.37555 | 16.46943 | 4992 ft | 194 kts | 169° |
| 2026-05-06 20:20 | 48.36254 | 16.47489 | 4992 ft | 194 kts | 169° |
| 2026-05-06 20:21 | 48.34954 | 16.48043 | 4994 ft | 194 kts | 169° |
| 2026-05-06 20:21 | 48.33654 | 16.48598 | 4892 ft | 194 kts | 169° |
| 2026-05-06 20:21 | 48.32360 | 16.49151 | 4685 ft | 193 kts | 169° |
| 2026-05-06 20:21 | 48.31074 | 16.49700 | 4450 ft | 191 kts | 169° |
| 2026-05-06 20:22 | 48.29808 | 16.50240 | 4200 ft | 187 kts | 169° |
| 2026-05-06 20:22 | 48.28579 | 16.50764 | 3958 ft | 184 kts | 169° |
| 2026-05-06 20:22 | 48.27363 | 16.51282 | 3727 ft | 183 kts | 169° |
| 2026-05-06 20:22 | 48.26144 | 16.51801 | 3480 ft | 181 kts | 170° |
| 2026-05-06 20:23 | 48.24945 | 16.52312 | 3254 ft | 178 kts | 169° |
| 2026-05-06 20:23 | 48.23759 | 16.52817 | 3018 ft | 176 kts | 169° |
| 2026-05-06 20:23 | 48.22592 | 16.53313 | 2787 ft | 173 kts | 170° |
| 2026-05-06 20:23 | 48.21459 | 16.53795 | 2551 ft | 168 kts | 170° |
| 2026-05-06 20:24 | 48.20371 | 16.54259 | 2344 ft | 156 kts | 169° |
| 2026-05-06 20:24 | 48.19389 | 16.54678 | 2156 ft | 138 kts | 170° |
| 2026-05-06 20:24 | 48.18499 | 16.55055 | 1970 ft | 132 kts | 170° |
| 2026-05-06 20:24 | 48.17629 | 16.55406 | 1792 ft | 129 kts | 169° |
| 2026-05-06 20:25 | 48.16777 | 16.55773 | 1590 ft | 126 kts | 168° |
| 2026-05-06 20:25 | 48.15961 | 16.56121 | 1478 ft | 127 kts | 167° |
| 2026-05-06 20:25 | 48.15112 | 16.56488 | 1369 ft | 128 kts | 166° |
| 2026-05-06 20:25 | 48.14267 | 16.56839 | 1110 ft | 125 kts | 163° |
| 2026-05-06 20:26 | 48.13449 | 16.57200 | 930 ft | 124 kts | 163° |
| 2026-05-06 20:26 | 48.12620 | 16.57549 | 802 ft | 119 kts | 162° |
| 2026-05-06 20:26 | 48.11858 | 16.57866 | 642 ft | 108 kts | 163° |
| 2026-05-06 20:26 | 48.11166 | 16.58163 | 619 ft | 86 kts | 163° |
| 2026-05-06 20:27 | 48.10720 | 16.58357 | 610 ft | 57 kts | 164° |
| 2026-05-06 20:27 | 48.10398 | 16.58472 | 614 ft | 39 kts | 178° |
| 2026-05-06 20:27 | 48.10180 | 16.58417 | 615 ft | 23 kts | 197° |
| 2026-05-06 20:27 | 48.10159 | 16.58408 | 610 ft | 0 kts | 196° |
| 2026-05-06 20:28 | 48.10111 | 16.58355 | 618 ft | 12 kts | 237° |
| 2026-05-06 20:28 | 48.10099 | 16.58312 | 618 ft | 5 kts | 248° |
| 2026-05-06 20:28 | 48.10146 | 16.58173 | 619 ft | 23 kts | 354° |
| 2026-05-06 20:29 | 48.10285 | 16.58113 | 612 ft | 20 kts | 344° |
| 2026-05-06 20:29 | 48.10385 | 16.58071 | 618 ft | 0 kts | 344° |
| 2026-05-06 20:31 | 48.10387 | 16.58070 | 616 ft | 0 kts | 344° |
| 2026-05-06 20:31 | 48.10389 | 16.58069 | 615 ft | 0 kts | 344° |
| 2026-05-06 20:33 | 48.10432 | 16.58051 | 620 ft | 17 kts | 344° |
| 2026-05-06 20:33 | 48.10600 | 16.57981 | 615 ft | 26 kts | 344° |
| 2026-05-06 20:33 | 48.10770 | 16.57907 | 615 ft | 24 kts | 343° |
| 2026-05-06 20:33 | 48.10929 | 16.57841 | 621 ft | 24 kts | 344° |
| 2026-05-06 20:34 | 48.11143 | 16.57749 | 619 ft | 36 kts | 344° |
| 2026-05-06 20:34 | 48.11388 | 16.57646 | 622 ft | 37 kts | 344° |
| 2026-05-06 20:34 | 48.11618 | 16.57547 | 623 ft | 29 kts | 345° |
| 2026-05-06 20:34 | 48.11781 | 16.57477 | 620 ft | 16 kts | 333° |
| 2026-05-06 20:35 | 48.11814 | 16.57342 | 614 ft | 13 kts | 292° |
| 2026-05-06 20:35 | 48.11854 | 16.57161 | 611 ft | 21 kts | 276° |
| 2026-05-06 20:35 | 48.11902 | 16.56999 | 613 ft | 6 kts | 295° |
| 2026-05-06 20:35 | 48.11903 | 16.56989 | 616 ft | 1 kts | 273° |
| 2026-05-06 20:36 | 48.11880 | 16.56958 | 618 ft | 7 kts | 209° |
| 2026-05-06 20:36 | 48.11843 | 16.56930 | 618 ft | 0 kts | 207° |